createdAt,value
2023-11-28T00:00:40.377Z,95780.44
2023-11-28T00:03:44.523Z,95779.69
2023-11-28T00:06:49.663Z,95771.94
2023-11-28T00:09:53.218Z,95783.38
2023-11-28T00:12:57.819Z,95760.81
2023-11-28T00:16:03.297Z,95762.31
2023-11-28T00:19:08.200Z,95765.03
2023-11-28T00:22:13.006Z,95759.84
2023-11-28T00:25:19.357Z,95754.75
2023-11-28T00:28:22.846Z,95753.84
2023-11-28T00:31:26.595Z,95756.31
2023-11-28T00:34:30.353Z,95753.03
2023-11-28T00:37:35.188Z,95746.88
2023-11-28T00:40:38.750Z,95745.84
2023-11-28T00:43:42.417Z,95729.41
2023-11-28T00:46:46.189Z,95743.41
2023-11-28T00:49:49.805Z,95742.38
2023-11-28T00:52:54.849Z,95738.94
2023-11-28T00:55:58.232Z,95741.22
2023-11-28T00:59:01.738Z,95736.53
2023-11-28T01:02:06.670Z,95735.47
2023-11-28T01:05:11.161Z,95736.66
2023-11-28T01:08:16.025Z,95731.22
2023-11-28T01:11:19.652Z,95727.16
2023-11-28T01:14:23.070Z,95726.34
2023-11-28T01:17:26.640Z,95728.88
2023-11-28T01:20:30.274Z,95721.06
2023-11-28T01:23:35.087Z,95717.78
2023-11-28T01:26:38.565Z,95719.59
2023-11-28T01:29:42.460Z,95716.13
2023-11-28T01:32:45.960Z,95713.66
2023-11-28T01:35:49.477Z,95705.91
2023-11-28T01:38:54.248Z,95704.44
2023-11-28T01:41:57.892Z,95698.41
2023-11-28T01:45:01.376Z,95706.00
2023-11-28T01:48:05.378Z,95669.13
2023-11-28T01:51:10.443Z,95707.34
2023-11-28T01:54:15.920Z,95698.84
2023-11-28T01:57:20.057Z,95695.94
2023-11-28T02:00:24.134Z,95691.22
2023-11-28T02:03:34.939Z,95689.72
2023-11-28T02:06:40.540Z,95693.16
2023-11-28T02:09:47.894Z,95696.31
2023-11-28T02:12:51.815Z,95690.63
2023-11-28T02:15:55.917Z,95683.25
2023-11-28T02:18:59.418Z,95697.50
2023-11-28T02:22:04.285Z,95690.69
2023-11-28T02:25:10.532Z,95694.00
2023-11-28T02:28:19.218Z,95694.19
2023-11-28T02:31:22.925Z,95686.47
2023-11-28T02:34:26.466Z,95690.00
2023-11-28T02:37:30.027Z,95685.19
2023-11-28T02:40:33.678Z,95672.13
2023-11-28T02:43:38.512Z,95673.78
2023-11-28T02:46:43.577Z,95682.38
2023-11-28T02:49:47.013Z,95686.13
2023-11-28T02:52:51.372Z,95677.03
2023-11-28T02:55:54.934Z,95674.88
2023-11-28T02:58:59.851Z,95677.69
2023-11-28T03:02:03.518Z,95671.78
2023-11-28T03:05:08.477Z,95669.81
2023-11-28T03:08:12.559Z,95644.53
2023-11-28T03:11:16.189Z,95665.69
2023-11-28T03:14:20.978Z,95664.34
2023-11-28T03:17:24.504Z,95654.75
2023-11-28T03:20:28.745Z,95653.69
2023-11-28T03:23:32.104Z,95653.38
2023-11-28T03:26:35.528Z,95649.56
2023-11-28T03:29:41.114Z,95650.09
2023-11-28T03:32:45.110Z,95648.38
2023-11-28T03:35:48.674Z,95641.22
2023-11-28T03:38:54.642Z,95643.78
2023-11-28T03:41:58.034Z,95639.97
2023-11-28T03:45:04.511Z,95633.88
2023-11-28T03:48:07.985Z,95637.09
2023-11-28T03:51:11.484Z,95630.44
2023-11-28T03:54:14.952Z,95632.72
2023-11-28T03:57:18.463Z,95643.41
2023-11-28T04:00:23.888Z,95640.81
2023-11-28T04:03:27.726Z,95636.78
2023-11-28T04:06:31.301Z,95629.06
2023-11-28T04:09:34.870Z,95632.25
2023-11-28T04:12:38.765Z,95627.28
2023-11-28T04:15:44.203Z,95627.47
2023-11-28T04:18:51.426Z,95625.97
2023-11-28T04:21:54.908Z,95622.72
2023-11-28T04:24:58.441Z,95629.78
2023-11-28T04:28:02.079Z,95630.63
2023-11-28T04:34:38.145Z,95625.84
2023-11-28T04:37:41.992Z,95629.19
2023-11-28T04:40:45.454Z,95630.88
2023-11-28T04:43:49.059Z,95630.84
2023-11-28T04:46:52.883Z,95627.41
2023-11-28T04:49:57.887Z,95630.56
2023-11-28T04:53:01.395Z,95626.06
2023-11-28T04:56:06.864Z,95624.25
2023-11-28T04:59:11.739Z,95625.31
2023-11-28T05:02:15.554Z,95617.66
2023-11-28T05:05:21.421Z,95623.50
2023-11-28T05:08:24.898Z,95623.06
2023-11-28T05:11:28.423Z,95621.84
2023-11-28T05:14:32.455Z,95621.28
2023-11-28T05:17:36.257Z,95620.59
2023-11-28T05:20:41.294Z,95630.72
2023-11-28T05:23:44.765Z,95629.16
2023-11-28T05:26:50.223Z,95628.50
2023-11-28T05:29:54.313Z,95630.34
2023-11-28T05:32:57.818Z,95631.16
2023-11-28T05:36:07.057Z,95634.63
2023-11-28T05:39:12.738Z,95629.00
2023-11-28T05:42:16.252Z,95629.38
2023-11-28T05:45:19.941Z,95630.94
2023-11-28T05:48:24.956Z,95631.94
2023-11-28T05:51:31.339Z,95638.69
2023-11-28T05:54:34.902Z,95639.13
2023-11-28T05:57:38.412Z,95643.31
2023-11-28T06:00:43.094Z,95650.97
2023-11-28T06:03:47.559Z,95618.69
2023-11-28T06:06:52.516Z,95644.97
2023-11-28T06:09:56.395Z,95651.28
2023-11-28T06:13:00.063Z,95644.06
2023-11-28T06:16:06.169Z,95646.91
2023-11-28T06:19:11.181Z,95658.03
2023-11-28T06:22:16.000Z,95658.63
2023-11-28T06:25:19.529Z,95658.03
2023-11-28T06:28:23.119Z,95662.16
2023-11-28T06:31:26.831Z,95661.03
2023-11-28T06:34:30.366Z,95660.13
2023-11-28T06:37:36.935Z,95666.41
2023-11-28T06:40:43.374Z,95661.31
2023-11-28T06:43:47.410Z,95664.63
2023-11-28T06:46:51.041Z,95670.63
2023-11-28T06:49:54.599Z,95676.50
2023-11-28T06:52:59.537Z,95689.47
2023-11-28T06:56:03.776Z,95688.78
2023-11-28T06:59:07.887Z,95691.69
2023-11-28T07:02:11.691Z,95701.06
2023-11-28T07:05:15.367Z,95695.97
2023-11-28T07:08:20.546Z,95704.59
2023-11-28T07:11:24.065Z,95713.69
2023-11-28T07:14:27.520Z,95713.06
2023-11-28T07:17:30.986Z,95714.03
2023-11-28T07:20:34.543Z,95715.63
2023-11-28T07:23:39.479Z,95720.66
2023-11-28T07:26:50.270Z,95729.13
2023-11-28T07:29:53.898Z,95732.44
2023-11-28T07:32:57.498Z,95733.03
2023-11-28T07:36:01.050Z,95730.84
2023-11-28T07:39:05.973Z,95744.75
2023-11-28T07:42:10.720Z,95750.88
2023-11-28T07:45:16.118Z,95750.75
2023-11-28T07:48:20.236Z,95758.88
2023-11-28T07:51:24.353Z,95767.56
2023-11-28T07:54:31.426Z,95772.69
2023-11-28T07:57:38.788Z,95786.66
2023-11-28T08:00:42.719Z,95785.28
2023-11-28T08:03:46.457Z,95791.00
2023-11-28T08:06:49.989Z,95792.66
2023-11-28T08:09:56.918Z,95800.09
2023-11-28T08:13:01.136Z,95806.16
2023-11-28T08:16:05.480Z,95816.22
2023-11-28T08:19:09.745Z,95819.41
2023-11-28T08:22:14.349Z,95825.09
2023-11-28T08:25:22.260Z,95833.94
2023-11-28T08:28:26.032Z,95840.25
2023-11-28T08:31:29.568Z,95842.72
2023-11-28T08:34:33.585Z,95851.59
2023-11-28T08:37:37.513Z,95860.50
2023-11-28T08:40:43.104Z,95862.63
2023-11-28T08:43:46.630Z,95864.50
2023-11-28T08:46:50.342Z,95873.66
2023-11-28T08:49:54.371Z,95890.72
2023-11-28T08:52:58.007Z,95889.81
2023-11-28T08:56:02.921Z,95901.13
2023-11-28T08:59:06.699Z,95911.88
2023-11-28T09:02:10.557Z,95912.78
2023-11-28T09:05:15.814Z,95921.59
2023-11-28T09:08:19.394Z,95922.50
2023-11-28T09:11:27.153Z,95939.25
2023-11-28T09:14:30.673Z,95940.28
2023-11-28T09:17:34.506Z,95948.75
2023-11-28T09:20:38.620Z,95957.97
2023-11-28T09:23:42.258Z,95968.25
2023-11-28T09:26:51.268Z,95970.06
2023-11-28T09:29:55.008Z,95978.31
2023-11-28T09:32:58.675Z,95988.94
2023-11-28T09:36:02.297Z,95982.34
2023-11-28T09:39:06.617Z,95993.47
2023-11-28T09:42:13.362Z,95989.66
2023-11-28T09:45:19.980Z,96010.56
2023-11-28T09:48:24.077Z,96018.81
2023-11-28T09:51:28.982Z,96022.88
2023-11-28T09:54:33.762Z,96020.59
2023-11-28T09:57:44.925Z,96037.00
2023-11-28T10:00:50.013Z,96035.53
2023-11-28T10:03:54.448Z,96037.47
2023-11-28T10:07:02.492Z,96050.50
2023-11-28T10:10:09.251Z,96059.53
2023-11-28T10:13:14.938Z,96061.44
2023-11-28T10:16:18.965Z,96071.75
2023-11-28T10:19:23.227Z,96082.63
2023-11-28T10:22:26.697Z,96090.53
2023-11-28T10:25:30.726Z,96091.94
2023-11-28T10:28:36.623Z,96100.72
2023-11-28T10:34:36.559Z,96111.13
2023-11-28T10:37:41.516Z,96111.69
2023-11-28T10:40:46.149Z,96124.56
2023-11-28T10:43:50.049Z,96131.09
2023-11-28T10:47:00.354Z,96127.78
2023-11-28T10:50:06.986Z,96133.25
2023-11-28T10:53:13.908Z,96143.28
2023-11-28T10:56:22.400Z,96142.28
2023-11-28T10:59:55.881Z,96153.06
2023-11-28T11:03:34.379Z,96153.63
2023-11-28T11:07:04.465Z,96153.88
2023-11-28T11:15:22.233Z,96169.09
2023-11-28T11:19:56.620Z,96096.50
2023-11-28T11:23:18.682Z,96197.00
2023-11-28T11:26:36.742Z,96199.81
2023-11-28T11:29:41.526Z,96208.44
2023-11-28T11:32:46.118Z,96213.53
2023-11-28T11:36:10.194Z,96226.56
2023-11-28T11:39:20.143Z,96237.53
2023-11-28T11:42:27.214Z,96243.34
2023-11-28T11:45:34.413Z,96254.44
2023-11-28T11:48:43.828Z,96255.81
2023-11-28T11:51:47.937Z,96249.44
2023-11-28T11:54:54.113Z,96279.28
2023-11-28T11:57:58.014Z,96279.28
2023-11-28T12:01:02.611Z,96277.78
2023-11-28T12:04:06.224Z,96294.78
2023-11-28T12:07:11.643Z,96288.25
2023-11-28T12:10:16.669Z,96298.34
2023-11-28T12:13:20.304Z,96292.41
2023-11-28T12:16:27.557Z,96311.69
2023-11-28T12:19:31.746Z,96318.72
2023-11-28T12:22:35.835Z,96336.84
2023-11-28T12:25:40.727Z,96343.28
2023-11-28T12:28:45.020Z,96354.31
2023-11-28T12:31:48.643Z,96357.22
2023-11-28T12:34:52.447Z,96367.59
2023-11-28T12:37:57.163Z,96373.66
2023-11-28T12:41:12.548Z,96377.88
2023-11-28T12:44:21.418Z,96389.03
2023-11-28T12:47:25.046Z,96388.06
2023-11-28T12:50:30.864Z,96407.50
2023-11-28T12:53:36.821Z,96415.34
2023-11-28T12:56:48.078Z,96428.81
2023-11-28T12:59:52.256Z,96427.00
2023-11-28T13:02:58.164Z,96434.34
2023-11-28T13:06:02.000Z,96450.56
2023-11-28T13:09:05.580Z,96468.66
2023-11-28T13:12:11.820Z,96454.75
2023-11-28T13:15:17.779Z,96446.09
2023-11-28T13:18:24.331Z,96479.94
2023-11-28T13:21:29.932Z,96476.31
2023-11-28T13:24:33.941Z,96488.28
2023-11-28T13:27:38.811Z,96494.97
2023-11-28T13:30:44.455Z,96500.84
2023-11-28T13:33:50.393Z,96504.53
2023-11-28T13:36:53.981Z,96521.41
2023-11-28T13:39:57.585Z,96529.53
2023-11-28T13:43:02.607Z,96531.69
2023-11-28T13:46:10.052Z,96540.63
2023-11-28T13:49:13.583Z,96549.34
2023-11-28T13:52:17.168Z,96555.31
2023-11-28T13:55:20.869Z,96559.16
2023-11-28T13:58:28.762Z,96569.22
2023-11-28T14:01:32.409Z,96577.22
2023-11-28T14:04:46.696Z,96586.38
2023-11-28T14:07:55.514Z,96600.00
2023-11-28T14:11:08.254Z,96607.13
2023-11-28T14:14:16.694Z,96604.41
2023-11-28T14:17:32.969Z,96625.56
2023-11-28T14:20:37.749Z,96631.19
2023-11-28T14:23:41.294Z,96641.66
2023-11-28T14:26:51.929Z,96659.69
2023-11-28T14:29:56.938Z,96661.41
2023-11-28T14:33:00.448Z,96659.75
2023-11-28T14:36:04.283Z,96674.19
2023-11-28T14:39:09.446Z,96670.56
2023-11-28T14:42:13.409Z,96678.47
2023-11-28T14:45:18.479Z,96678.78
2023-11-28T14:48:22.336Z,96686.81
2023-11-28T14:51:26.065Z,96703.09
2023-11-28T14:54:30.029Z,96712.22
2023-11-28T14:57:33.663Z,96715.63
2023-11-28T15:00:38.558Z,96717.31
2023-11-28T15:03:42.971Z,96713.59
2023-11-28T15:06:46.598Z,96725.44
2023-11-28T15:09:50.249Z,96723.59
2023-11-28T15:12:53.832Z,96724.31
2023-11-28T15:15:58.711Z,96737.09
2023-11-28T15:19:02.386Z,96747.44
2023-11-28T15:22:08.457Z,96752.69
2023-11-28T15:25:12.638Z,96760.78
2023-11-28T15:28:17.143Z,96770.28
2023-11-28T15:31:22.192Z,96776.09
2023-11-28T15:34:28.089Z,96784.78
2023-11-28T15:37:31.606Z,96789.03
2023-11-28T15:40:35.913Z,96786.47
2023-11-28T15:43:39.549Z,96799.97
2023-11-28T15:46:46.814Z,96783.72
2023-11-28T15:49:50.383Z,96814.53
2023-11-28T15:52:53.962Z,96819.78
2023-11-28T15:55:57.621Z,96825.91
2023-11-28T15:59:01.344Z,96827.44
2023-11-28T16:02:07.303Z,96836.66
2023-11-28T16:05:11.669Z,96844.25
2023-11-28T16:08:15.304Z,96848.34
2023-11-28T16:11:19.169Z,96857.28
2023-11-28T16:14:22.836Z,96867.19
2023-11-28T16:17:27.864Z,96868.91
2023-11-28T16:20:34.184Z,96889.06
2023-11-28T16:23:38.078Z,96894.06
2023-11-28T16:26:42.388Z,96889.59
2023-11-28T16:29:46.713Z,96899.97
2023-11-28T16:34:34.262Z,96898.84
2023-11-28T16:37:40.353Z,96914.69
2023-11-28T16:40:44.457Z,96914.22
2023-11-28T16:43:48.063Z,96917.66
2023-11-28T16:46:51.867Z,96926.00
2023-11-28T16:49:56.963Z,96927.03
2023-11-28T16:53:00.542Z,96932.09
2023-11-28T16:56:06.757Z,96938.84
2023-11-28T16:59:10.697Z,96938.16
2023-11-28T17:02:14.311Z,96954.28
2023-11-28T17:05:21.714Z,96951.97
2023-11-28T17:08:25.570Z,96961.13
2023-11-28T17:11:30.285Z,96961.78
2023-11-28T17:14:33.968Z,96964.63
2023-11-28T17:17:37.638Z,96971.31
2023-11-28T17:20:43.039Z,96975.47
2023-11-28T17:23:47.203Z,96963.50
2023-11-28T17:26:50.662Z,96981.56
2023-11-28T17:29:54.159Z,96981.44
2023-11-28T17:32:57.673Z,96980.09
2023-11-28T17:36:02.552Z,96989.28
2023-11-28T17:39:07.338Z,96996.00
2023-11-28T17:42:10.851Z,97005.88
2023-11-28T17:45:14.757Z,97013.59
2023-11-28T17:48:18.274Z,97014.75
2023-11-28T17:51:23.978Z,97028.34
2023-11-28T17:54:28.312Z,97030.22
2023-11-28T17:57:31.782Z,97025.09
2023-11-28T18:00:35.825Z,97023.22
2023-11-28T18:03:39.940Z,97044.50
2023-11-28T18:06:51.717Z,97040.22
2023-11-28T18:09:55.493Z,97041.09
2023-11-28T18:13:02.102Z,97047.03
2023-11-28T18:16:06.504Z,97043.41
2023-11-28T18:19:10.107Z,97037.78
2023-11-28T18:22:17.044Z,97040.94
2023-11-28T18:25:20.673Z,97018.56
2023-11-28T18:28:24.214Z,97038.78
2023-11-28T18:31:28.789Z,97051.38
2023-11-28T18:34:32.195Z,97051.28
2023-11-28T18:37:37.025Z,97063.31
2023-11-28T18:40:42.216Z,97068.28
2023-11-28T18:43:45.657Z,97069.09
2023-11-28T18:46:49.645Z,97033.69
2023-11-28T18:49:53.113Z,97068.16
2023-11-28T18:52:58.061Z,97080.06
2023-11-28T18:56:01.794Z,97080.06
2023-11-28T18:59:05.335Z,97082.66
2023-11-28T19:02:10.168Z,97086.81
2023-11-28T19:05:15.018Z,97087.81
2023-11-28T19:08:21.243Z,97090.31
2023-11-28T19:11:25.404Z,97088.56
2023-11-28T19:14:28.961Z,97096.13
2023-11-28T19:17:32.550Z,97093.69
2023-11-28T19:20:36.726Z,97099.72
2023-11-28T19:23:42.163Z,97109.88
2023-11-28T19:26:52.382Z,97108.06
2023-11-28T19:29:56.293Z,97087.25
2023-11-28T19:33:00.514Z,97115.78
2023-11-28T19:36:06.156Z,97113.34
2023-11-28T19:39:17.065Z,97101.66
2023-11-28T19:42:21.207Z,97114.25
2023-11-28T19:45:26.080Z,97115.91
2023-11-28T19:48:30.603Z,97125.16
2023-11-28T19:51:35.120Z,97120.97
2023-11-28T19:54:40.273Z,97129.69
2023-11-28T19:57:43.738Z,97133.97
2023-11-28T20:00:50.257Z,97134.72
2023-11-28T20:03:53.864Z,97148.38
2023-11-28T20:06:57.523Z,97156.53
2023-11-28T20:10:04.530Z,97144.16
2023-11-28T20:13:08.223Z,97150.41
2023-11-28T20:16:11.733Z,97158.97
2023-11-28T20:19:15.249Z,97155.47
2023-11-28T20:22:18.770Z,97150.56
2023-11-28T20:25:23.926Z,97148.06
2023-11-28T20:28:29.763Z,97170.59
2023-11-28T20:31:33.303Z,97171.91
2023-11-28T20:34:38.856Z,97164.16
2023-11-28T20:37:42.866Z,97167.25
2023-11-28T20:40:47.726Z,97174.31
2023-11-28T20:43:51.362Z,97179.41
2023-11-28T20:46:55.055Z,97181.84
2023-11-28T20:49:58.787Z,97181.00
2023-11-28T20:53:02.893Z,97183.44
2023-11-28T20:56:09.515Z,97184.50
2023-11-28T20:59:14.575Z,97183.63
2023-11-28T21:02:19.008Z,97156.00
2023-11-28T21:05:23.290Z,97185.94
2023-11-28T21:08:26.794Z,97191.22
2023-11-28T21:11:31.796Z,97191.09
2023-11-28T21:14:35.371Z,97191.97
2023-11-28T21:17:39.215Z,97197.88
2023-11-28T21:20:43.689Z,97201.34
2023-11-28T21:23:47.396Z,97202.97
2023-11-28T21:26:52.377Z,97203.09
2023-11-28T21:29:55.934Z,97196.19
2023-11-28T21:32:59.391Z,97219.19
2023-11-28T21:36:09.069Z,97218.50
2023-11-28T21:39:13.556Z,97219.97
2023-11-28T21:42:19.976Z,97222.59
2023-11-28T21:45:23.450Z,97226.75
2023-11-28T21:48:28.487Z,97221.94
2023-11-28T21:51:32.557Z,97226.16
2023-11-28T21:54:36.147Z,97225.13
2023-11-28T21:57:41.459Z,97222.63
2023-11-28T22:00:44.907Z,97221.16
2023-11-28T22:03:48.527Z,97213.59
2023-11-28T22:06:52.103Z,97211.81
2023-11-28T22:09:55.557Z,97217.16
2023-11-28T22:13:00.689Z,97220.47
2023-11-28T22:16:04.615Z,97217.16
2023-11-28T22:19:08.806Z,97217.94
2023-11-28T22:22:12.326Z,97220.66
2023-11-28T22:25:15.953Z,97217.22
2023-11-28T22:28:20.755Z,97222.16
2023-11-28T22:34:33.856Z,97225.84
2023-11-28T22:37:37.453Z,97231.81
2023-11-28T22:40:40.954Z,97224.94
2023-11-28T22:43:44.591Z,97228.09
2023-11-28T22:46:48.117Z,97228.16
2023-11-28T22:49:53.373Z,97237.63
2023-11-28T22:52:57.687Z,97231.72
2023-11-28T22:56:01.201Z,97231.44
2023-11-28T22:59:04.960Z,97229.91
2023-11-28T23:02:08.537Z,97229.06
2023-11-28T23:05:13.710Z,97234.28
2023-11-28T23:08:17.209Z,97237.56
2023-11-28T23:11:20.712Z,97235.09
2023-11-28T23:14:24.330Z,97234.19
2023-11-28T23:17:28.018Z,97226.41
2023-11-28T23:20:32.963Z,97229.97
2023-11-28T23:23:37.516Z,97229.22
2023-11-28T23:26:43.684Z,97225.75
2023-11-28T23:29:47.273Z,97219.88
2023-11-28T23:32:51.314Z,97229.38
2023-11-28T23:35:56.289Z,97223.25
2023-11-28T23:38:59.971Z,97224.28
2023-11-28T23:42:03.474Z,97230.16
2023-11-28T23:45:07.865Z,97227.53
2023-11-28T23:48:11.854Z,97222.44
2023-11-28T23:51:16.767Z,97223.38
2023-11-28T23:54:20.209Z,97222.44
2023-11-28T23:57:23.762Z,97222.38
